Time;durP1;ratioP1;P1;durP2;ratioP2;P2;SDS_P1;SDS_P2;PMS_P1;PMS_P2;Temp;Humidity;BMP_temperature;BMP_pressure;BME280_temperature;BME280_humidity;BME280_pressure;Samples;Min_cycle;Max_cycle;Signal;HPM_P1;HPM_P2
2023/07/18 00:01:27;;;;;;;6.07;5.07;;;14.20;1.00;;;;;;5021464;28;20676;-76
2023/07/18 00:03:53;;;;;;;9.60;4.43;;;14.10;1.00;;;;;;5013190;28;20164;-71
2023/07/18 00:06:19;;;;;;;9.03;3.80;;;14.10;1.00;;;;;;5012449;28;20461;-68
2023/07/18 00:08:45;;;;;;;8.87;4.50;;;14.10;1.00;;;;;;5012895;28;20168;-68
2023/07/18 00:11:11;;;;;;;5.30;4.63;;;14.10;1.00;;;;;;5020044;28;20434;-70
2023/07/18 00:13:36;;;;;;;6.70;4.70;;;14.20;5.70;;;;;;5032171;28;20541;-68
2023/07/18 00:16:02;;;;;;;7.60;5.60;;;14.20;10.50;;;;;;5019143;28;20595;-70
2023/07/18 00:18:28;;;;;;;9.87;6.10;;;14.20;7.80;;;;;;5012998;28;20223;-72
2023/07/18 00:20:54;;;;;;;7.57;5.00;;;14.10;8.40;;;;;;5013075;28;20240;-68
2023/07/18 00:23:19;;;;;;;11.93;4.67;;;14.20;12.40;;;;;;5031364;28;20241;-77
2023/07/18 00:25:45;;;;;;;10.90;6.40;;;14.20;12.90;;;;;;5030928;28;20199;-78
2023/07/18 00:28:10;;;;;;;11.93;4.80;;;14.20;8.60;;;;;;5017587;28;20563;-77
2023/07/18 00:30:36;;;;;;;11.93;4.77;;;14.20;8.60;;;;;;5027893;28;20183;-73
2023/07/18 00:33:02;;;;;;;14.67;5.17;;;14.20;5.50;;;;;;5036145;28;20245;-75
2023/07/18 00:35:28;;;;;;;4.40;4.00;;;14.20;5.20;;;;;;5035822;28;20164;-74
2023/07/18 00:37:53;;;;;;;5.23;4.73;;;14.20;4.90;;;;;;5020389;28;20188;-73
2023/07/18 00:40:19;;;;;;;10.30;4.47;;;14.20;9.80;;;;;;5032595;28;20244;-77
2023/07/18 00:42:47;;;;;;;6.23;3.80;;;14.20;15.60;;;;;;5020845;28;20211;-77
2023/07/18 00:45:13;;;;;;;8.67;4.83;;;14.30;23.00;;;;;;5020905;28;20168;-67
2023/07/18 00:47:41;;;;;;;7.00;4.73;;;14.30;22.00;;;;;;5035686;28;20425;-76
2023/07/18 00:50:09;;;;;;;7.23;4.70;;;14.30;24.50;;;;;;5021484;28;20506;-68
2023/07/18 00:52:36;;;;;;;6.20;3.80;;;14.30;26.70;;;;;;5030508;28;20401;-73
2023/07/18 00:55:03;;;;;;;11.43;4.30;;;14.30;25.30;;;;;;5016001;28;20486;-73
2023/07/18 00:57:30;;;;;;;12.03;5.33;;;14.30;26.40;;;;;;5016093;28;20459;-67
2023/07/18 00:59:56;;;;;;;8.90;5.43;;;14.30;27.80;;;;;;5021350;28;20840;-68
2023/07/18 01:02:22;;;;;;;7.17;4.97;;;14.30;30.60;;;;;;5023293;28;20446;-76
2023/07/18 01:04:47;;;;;;;12.50;5.37;;;14.30;35.70;;;;;;5014918;28;20946;-72
2023/07/18 01:07:14;;;;;;;7.60;4.87;;;14.30;42.20;;;;;;5027321;28;20203;-75
2023/07/18 01:09:40;;;;;;;8.60;5.97;;;14.30;44.70;;;;;;5035900;28;20230;-71
2023/07/18 01:12:06;;;;;;;9.37;5.17;;;14.30;43.10;;;;;;5024184;28;20971;-71
2023/07/18 01:14:32;;;;;;;14.23;5.10;;;14.20;44.60;;;;;;5030601;28;20192;-74
2023/07/18 01:16:57;;;;;;;11.40;5.73;;;14.20;55.70;;;;;;5033716;28;20477;-72
2023/07/18 01:19:24;;;;;;;10.27;5.50;;;14.10;59.30;;;;;;5035641;28;20203;-67
2023/07/18 01:21:49;;;;;;;12.20;5.50;;;14.10;64.80;;;;;;5022219;28;20169;-67
2023/07/18 01:24:15;;;;;;;7.97;5.60;;;14.10;67.80;;;;;;5015316;28;20405;-69
2023/07/18 01:26:41;;;;;;;8.53;4.70;;;14.10;74.50;;;;;;5014881;28;20188;-75
2023/07/18 01:29:08;;;;;;;7.57;5.80;;;14.00;82.60;;;;;;5015916;28;20195;-68
2023/07/18 01:31:34;;;;;;;10.90;5.43;;;14.00;93.50;;;;;;5027053;28;20182;-76
2023/07/18 01:33:59;;;;;;;11.93;5.60;;;14.10;93.50;;;;;;5023399;28;20463;-67
2023/07/18 01:36:28;;;;;;;18.17;6.37;;;14.10;93.50;;;;;;5031403;28;20219;-76
2023/07/18 01:38:54;;;;;;;9.67;5.30;;;14.10;93.50;;;;;;5033506;28;20172;-68
2023/07/18 01:41:20;;;;;;;8.80;5.80;;;14.10;93.50;;;;;;5035121;28;20394;-67
2023/07/18 01:43:46;;;;;;;8.80;5.67;;;14.00;93.50;;;;;;5018557;28;20509;-69
2023/07/18 01:46:11;;;;;;;12.33;6.40;;;14.00;93.50;;;;;;5022296;28;20571;-73
2023/07/18 01:48:38;;;;;;;8.20;5.60;;;14.00;93.50;;;;;;5035010;28;20217;-78
2023/07/18 01:51:04;;;;;;;9.43;5.20;;;13.90;93.50;;;;;;5024897;28;20270;-75
2023/07/18 01:53:29;;;;;;;11.30;5.90;;;13.90;99.70;;;;;;5014825;28;20485;-78
2023/07/18 01:55:59;;;;;;;8.77;5.70;;;13.90;99.90;;;;;;5014440;28;20518;-75
2023/07/18 01:58:24;;;;;;;11.00;5.97;;;13.90;99.90;;;;;;5024762;28;20291;-67
2023/07/18 02:00:50;;;;;;;8.97;5.93;;;13.90;99.90;;;;;;5032772;28;20517;-68
2023/07/18 02:03:16;;;;;;;13.57;6.30;;;13.80;99.90;;;;;;5024092;28;20199;-71
2023/07/18 02:05:41;;;;;;;10.70;5.50;;;13.80;99.90;;;;;;5014083;28;20586;-76
2023/07/18 02:08:07;;;;;;;5.97;4.67;;;13.80;99.90;;;;;;5025198;28;20199;-78
2023/07/18 02:10:33;;;;;;;11.30;5.93;;;13.80;99.90;;;;;;5034483;28;20532;-76
2023/07/18 02:13:01;;;;;;;16.73;5.50;;;13.80;99.90;;;;;;5027267;28;20239;-68
2023/07/18 02:15:28;;;;;;;8.13;6.20;;;13.80;99.90;;;;;;5025251;28;20202;-74
2023/07/18 02:17:54;;;;;;;7.87;5.33;;;13.80;99.90;;;;;;5034426;28;20414;-78
2023/07/18 02:20:19;;;;;;;12.50;5.80;;;13.80;99.90;;;;;;5034409;28;20406;-78
2023/07/18 02:22:48;;;;;;;11.23;4.93;;;13.80;99.90;;;;;;5024706;28;20407;-74
2023/07/18 02:25:17;;;;;;;11.57;5.40;;;13.80;99.90;;;;;;5013776;28;20173;-77
2023/07/18 02:27:44;;;;;;;9.60;4.80;;;13.90;99.90;;;;;;5014529;28;20417;-75
2023/07/18 02:30:11;;;;;;;10.00;4.70;;;13.80;99.90;;;;;;5031360;28;20464;-76
2023/07/18 02:32:38;;;;;;;14.43;5.57;;;13.80;99.90;;;;;;5034126;28;20410;-75
2023/07/18 02:35:05;;;;;;;7.23;5.40;;;13.90;99.90;;;;;;5032849;28;20410;-76
2023/07/18 02:37:31;;;;;;;13.17;4.80;;;13.90;99.90;;;;;;5025378;28;20459;-76
2023/07/18 02:39:57;;;;;;;10.40;5.37;;;13.90;99.90;;;;;;5014490;28;20469;-67
2023/07/18 02:42:23;;;;;;;7.43;4.90;;;13.90;99.90;;;;;;5014608;28;20484;-76
2023/07/18 02:44:49;;;;;;;10.50;5.50;;;13.90;99.90;;;;;;5025539;28;20266;-68
2023/07/18 02:47:14;;;;;;;11.60;5.03;;;13.90;99.90;;;;;;5032217;28;20592;-76
2023/07/18 02:49:40;;;;;;;15.13;5.13;;;13.90;99.90;;;;;;5033207;28;20191;-77
2023/07/18 02:52:07;;;;;;;14.57;7.17;;;13.90;99.90;;;;;;5026173;28;20207;-68
2023/07/18 02:54:32;;;;;;;11.83;6.00;;;13.80;99.90;;;;;;5027844;28;20973;-68
2023/07/18 02:56:59;;;;;;;10.10;5.10;;;13.80;99.90;;;;;;5029876;28;20487;-72
2023/07/18 02:59:25;;;;;;;12.73;4.60;;;13.80;99.90;;;;;;5032580;28;20172;-69
2023/07/18 03:01:56;;;;;;;8.20;5.00;;;13.80;99.90;;;;;;5032614;28;20442;-68
2023/07/18 03:04:21;;;;;;;11.10;5.77;;;13.80;99.90;;;;;;5033171;28;20402;-74
2023/07/18 03:06:47;;;;;;;9.87;7.30;;;13.80;99.90;;;;;;5020183;28;20417;-70
2023/07/18 03:09:17;;;;;;;9.70;5.20;;;13.80;99.90;;;;;;5013801;28;20176;-71
2023/07/18 03:11:43;;;;;;;12.33;5.37;;;13.80;99.90;;;;;;5018281;28;20662;-77
2023/07/18 03:14:11;;;;;;;9.80;5.93;;;13.90;99.90;;;;;;5016256;28;21563;-67
2023/07/18 03:16:38;;;;;;;10.87;5.80;;;13.90;99.90;;;;;;5031474;28;20973;-73
2023/07/18 03:19:08;;;;;;;11.97;7.43;;;13.80;99.90;;;;;;5033386;28;21189;-77
2023/07/18 03:21:34;;;;;;;11.80;5.90;;;13.80;99.90;;;;;;5022572;28;20419;-74
2023/07/18 03:24:00;;;;;;;9.43;5.80;;;13.90;99.90;;;;;;5031903;28;20418;-67
2023/07/18 03:26:26;;;;;;;12.30;5.27;;;13.90;99.90;;;;;;5019139;28;20569;-73
2023/07/18 03:28:52;;;;;;;5.73;4.53;;;13.90;99.90;;;;;;5015461;28;20439;-69
2023/07/18 03:31:18;;;;;;;6.23;4.60;;;13.90;99.90;;;;;;5029550;28;20179;-77
2023/07/18 03:33:43;;;;;;;8.10;4.90;;;13.90;99.90;;;;;;5033000;28;20469;-78
2023/07/18 03:36:09;;;;;;;20.90;4.87;;;13.90;99.90;;;;;;5022114;28;20173;-67
2023/07/18 03:38:35;;;;;;;15.00;6.13;;;13.90;99.90;;;;;;5013552;28;20293;-78
2023/07/18 03:41:00;;;;;;;14.20;4.90;;;13.80;99.90;;;;;;5013073;28;20171;-67
2023/07/18 03:43:26;;;;;;;8.13;5.60;;;13.80;99.90;;;;;;5014308;28;20707;-76
2023/07/18 03:45:52;;;;;;;8.20;5.23;;;13.80;99.90;;;;;;5016899;28;20198;-72
2023/07/18 03:48:18;;;;;;;9.30;5.33;;;13.80;99.90;;;;;;5010884;28;20211;-78
2023/07/18 03:50:44;;;;;;;10.90;5.03;;;13.80;99.90;;;;;;5012750;28;20663;-73
2023/07/18 03:53:09;;;;;;;16.40;5.30;;;13.80;99.90;;;;;;5015934;28;20199;-68
2023/07/18 03:55:35;;;;;;;10.30;4.80;;;13.80;99.90;;;;;;5030495;28;20429;-75
2023/07/18 03:58:01;;;;;;;9.40;5.10;;;13.80;99.90;;;;;;5031709;28;20192;-70
2023/07/18 04:00:27;;;;;;;15.47;5.03;;;13.80;99.90;;;;;;5027891;28;20413;-71
2023/07/18 04:02:52;;;;;;;8.27;5.90;;;13.80;99.90;;;;;;5020370;28;20195;-68
2023/07/18 04:05:18;;;;;;;12.30;5.70;;;13.90;99.90;;;;;;5036261;28;20167;-77
2023/07/18 04:07:45;;;;;;;12.50;5.30;;;13.80;99.90;;;;;;5035216;28;20203;-78
2023/07/18 04:10:14;;;;;;;12.97;5.33;;;13.90;99.90;;;;;;5036964;28;20702;-71
2023/07/18 04:12:43;;;;;;;8.90;6.47;;;13.90;99.90;;;;;;5036775;28;20967;-69
2023/07/18 04:15:11;;;;;;;8.17;5.37;;;13.80;99.90;;;;;;5031192;28;20434;-68
2023/07/18 04:17:38;;;;;;;11.20;5.97;;;13.90;99.90;;;;;;5017376;28;20815;-68
2023/07/18 04:20:05;;;;;;;7.67;5.17;;;13.80;99.90;;;;;;5016886;28;20470;-70
2023/07/18 04:22:31;;;;;;;16.73;6.27;;;13.80;99.90;;;;;;5030842;28;20508;-74
2023/07/18 04:24:57;;;;;;;14.40;7.67;;;13.90;99.90;;;;;;5036536;28;20402;-68
2023/07/18 04:27:26;;;;;;;21.07;6.13;;;13.90;99.90;;;;;;5035957;28;20449;-78
2023/07/18 04:29:53;;;;;;;10.87;5.17;;;13.90;99.90;;;;;;5026577;28;21021;-76
2023/07/18 04:32:19;;;;;;;11.83;6.80;;;14.00;99.90;;;;;;5022323;28;20766;-68
2023/07/18 04:34:48;;;;;;;7.53;6.30;;;14.00;99.90;;;;;;5035488;28;20431;-73
2023/07/18 04:37:13;;;;;;;9.13;6.50;;;14.10;99.90;;;;;;5035091;28;21203;-75
2023/07/18 04:39:39;;;;;;;11.30;5.87;;;14.10;99.90;;;;;;5035707;28;20493;-71
2023/07/18 04:42:05;;;;;;;13.87;7.13;;;14.20;99.90;;;;;;5036238;28;20222;-75
2023/07/18 04:44:31;;;;;;;12.00;7.30;;;14.20;99.90;;;;;;5032920;28;20667;-67
2023/07/18 04:46:57;;;;;;;14.07;6.00;;;14.20;99.90;;;;;;5023951;28;20690;-77
2023/07/18 04:49:24;;;;;;;10.90;6.40;;;14.30;99.90;;;;;;5035729;28;20782;-77
2023/07/18 04:51:51;;;;;;;13.10;6.50;;;14.30;99.90;;;;;;5036064;28;20414;-77
2023/07/18 04:54:17;;;;;;;7.83;5.50;;;14.40;99.90;;;;;;5036079;28;20511;-73
2023/07/18 04:56:43;;;;;;;13.23;5.40;;;14.50;99.90;;;;;;5034770;28;20397;-77
2023/07/18 04:59:09;;;;;;;10.80;5.73;;;14.60;99.90;;;;;;5031732;28;20461;-77
2023/07/18 05:01:36;;;;;;;8.03;6.40;;;14.70;99.90;;;;;;5030529;28;20188;-69
2023/07/18 05:04:02;;;;;;;22.33;8.03;;;14.70;99.90;;;;;;5036082;28;20168;-69
2023/07/18 05:06:28;;;;;;;20.60;6.30;;;14.80;99.90;;;;;;5034939;28;20454;-68
2023/07/18 05:08:54;;;;;;;11.00;4.87;;;14.80;99.90;;;;;;5035535;28;20394;-71
2023/07/18 05:11:20;;;;;;;12.37;6.33;;;15.00;99.90;;;;;;5035347;28;20402;-79
2023/07/18 05:13:46;;;;;;;14.60;5.93;;;15.10;99.90;;;;;;5032854;28;20494;-77
2023/07/18 05:16:11;;;;;;;11.40;6.30;;;15.20;99.90;;;;;;5022968;28;20175;-68
2023/07/18 05:18:37;;;;;;;15.97;6.63;;;15.20;99.90;;;;;;5034646;28;20225;-77
2023/07/18 05:21:03;;;;;;;10.83;5.53;;;15.30;99.90;;;;;;5035667;28;20171;-68
2023/07/18 05:23:28;;;;;;;10.40;5.80;;;15.30;99.90;;;;;;5034459;28;20176;-78
2023/07/18 05:25:56;;;;;;;8.23;5.20;;;15.30;99.90;;;;;;5032512;28;20192;-76
2023/07/18 05:28:22;;;;;;;12.10;5.90;;;15.30;99.90;;;;;;5035267;28;20624;-69
2023/07/18 05:30:48;;;;;;;9.07;5.57;;;15.40;99.90;;;;;;5028923;28;20440;-68
2023/07/18 05:33:14;;;;;;;8.43;5.93;;;15.40;99.90;;;;;;5034990;28;20529;-68
2023/07/18 05:35:40;;;;;;;9.40;5.63;;;15.40;99.90;;;;;;5034424;28;20167;-75
2023/07/18 05:38:06;;;;;;;11.40;5.43;;;15.50;99.90;;;;;;5035382;28;20184;-76
2023/07/18 05:40:31;;;;;;;14.20;5.20;;;15.50;99.90;;;;;;5035138;28;20452;-71
2023/07/18 05:42:57;;;;;;;8.77;5.20;;;15.60;99.90;;;;;;5026381;28;20438;-68
2023/07/18 05:45:23;;;;;;;8.53;5.93;;;15.70;99.90;;;;;;5027802;28;20195;-74
2023/07/18 05:47:48;;;;;;;10.70;5.90;;;15.80;99.90;;;;;;5015171;28;20192;-65
2023/07/18 05:50:14;;;;;;;8.13;5.00;;;15.70;99.90;;;;;;5014997;28;20209;-72
2023/07/18 05:52:40;;;;;;;9.10;5.40;;;15.80;99.90;;;;;;5015040;28;20177;-72
2023/07/18 05:55:07;;;;;;;14.10;5.20;;;15.80;99.90;;;;;;5014239;28;20196;-72
2023/07/18 05:57:33;;;;;;;8.40;5.50;;;15.80;99.90;;;;;;5019500;28;20802;-70
2023/07/18 05:59:58;;;;;;;11.60;5.40;;;15.80;99.90;;;;;;5032338;28;20520;-69
2023/07/18 06:02:24;;;;;;;13.17;5.40;;;15.90;99.90;;;;;;5016086;28;20175;-67
2023/07/18 06:04:50;;;;;;;10.20;5.10;;;15.90;99.90;;;;;;5014679;28;20172;-73
2023/07/18 06:07:16;;;;;;;12.60;4.77;;;16.00;99.90;;;;;;5013881;28;20676;-70
2023/07/18 06:09:42;;;;;;;5.43;4.47;;;16.00;99.90;;;;;;5018873;28;20184;-66
2023/07/18 06:12:09;;;;;;;9.03;5.20;;;16.10;99.90;;;;;;5034058;28;20779;-69
2023/07/18 06:14:34;;;;;;;15.83;5.07;;;16.10;99.90;;;;;;5031278;28;20466;-65
2023/07/18 06:17:01;;;;;;;12.97;5.73;;;16.10;99.90;;;;;;5015236;28;20458;-65
2023/07/18 06:19:26;;;;;;;8.10;5.13;;;16.20;99.90;;;;;;5014741;28;20168;-65
2023/07/18 06:21:52;;;;;;;10.80;5.10;;;16.20;99.90;;;;;;5013556;28;20914;-72
2023/07/18 06:24:18;;;;;;;10.23;5.17;;;16.30;99.90;;;;;;5013657;28;20172;-74
2023/07/18 06:26:49;;;;;;;5.80;4.90;;;16.30;99.90;;;;;;5011259;28;20192;-71
2023/07/18 06:29:19;;;;;;;8.40;5.17;;;16.40;96.90;;;;;;5013167;28;20199;-66
2023/07/18 06:31:46;;;;;;;12.03;6.00;;;16.50;98.70;;;;;;5019058;28;20430;-73
2023/07/18 06:34:12;;;;;;;5.20;4.70;;;16.60;94.40;;;;;;5022422;28;20469;-73
2023/07/18 06:36:38;;;;;;;8.47;5.07;;;16.70;94.50;;;;;;5015253;28;20533;-65
2023/07/18 06:39:05;;;;;;;11.33;5.10;;;16.70;92.20;;;;;;5034121;28;20643;-76
2023/07/18 06:41:32;;;;;;;7.80;4.03;;;16.80;91.70;;;;;;5032556;28;20238;-75
2023/07/18 06:43:58;;;;;;;9.93;5.30;;;16.90;89.00;;;;;;5033758;28;20434;-75
2023/07/18 06:46:24;;;;;;;14.40;4.60;;;16.90;57.20;;;;;;5026545;28;20472;-68
2023/07/18 06:48:50;;;;;;;7.93;5.20;;;16.80;43.30;;;;;;5014103;28;20431;-77
2023/07/18 06:51:15;;;;;;;11.27;4.77;;;16.90;38.40;;;;;;5026783;28;20175;-68
2023/07/18 06:53:41;;;;;;;11.90;4.27;;;16.90;36.80;;;;;;5032257;28;20211;-75
2023/07/18 06:56:07;;;;;;;16.00;4.67;;;17.00;31.00;;;;;;5032215;28;20257;-77
2023/07/18 06:58:33;;;;;;;8.60;4.23;;;16.90;18.10;;;;;;5014057;28;20176;-78
2023/07/18 07:00:58;;;;;;;9.60;5.07;;;17.00;8.40;;;;;;5013827;28;20180;-69
2023/07/18 07:03:24;;;;;;;7.63;4.30;;;16.90;1.00;;;;;;5014004;28;20180;-77
2023/07/18 07:05:49;;;;;;;5.90;3.80;;;17.00;1.00;;;;;;5013045;28;20168;-68
2023/07/18 07:08:18;;;;;;;11.50;4.20;;;17.10;1.00;;;;;;5013777;28;20715;-72
2023/07/18 07:10:45;;;;;;;7.70;3.90;;;17.10;1.00;;;;;;5022693;28;20179;-74
2023/07/18 07:13:11;;;;;;;8.50;4.70;;;17.20;1.00;;;;;;5032972;28;20508;-73
2023/07/18 07:15:37;;;;;;;4.80;3.83;;;17.40;1.00;;;;;;5032703;28;20390;-76
2023/07/18 07:18:03;;;;;;;5.53;4.30;;;17.40;1.00;;;;;;5015579;28;21001;-68
2023/07/18 07:20:33;;;;;;;8.07;5.23;;;17.50;1.00;;;;;;5013404;28;20214;-68
2023/07/18 07:23:00;;;;;;;6.70;4.43;;;17.50;1.00;;;;;;5014026;28;20408;-71
2023/07/18 07:25:31;;;;;;;7.80;4.47;;;17.60;1.00;;;;;;5021277;28;20418;-78
2023/07/18 07:27:57;;;;;;;8.87;5.27;;;17.60;1.00;;;;;;5033390;28;20430;-69
2023/07/18 07:30:23;;;;;;;5.83;4.50;;;17.60;1.00;;;;;;5033216;28;20410;-71
2023/07/18 07:32:53;;;;;;;4.90;4.20;;;17.50;1.00;;;;;;5014075;28;20438;-76
2023/07/18 07:35:20;;;;;;;6.77;4.67;;;17.50;1.00;;;;;;5012423;28;20415;-72
2023/07/18 07:37:47;;;;;;;11.40;4.70;;;17.40;1.00;;;;;;5014118;28;20423;-73
2023/07/18 07:40:13;;;;;;;6.90;6.30;;;17.40;1.00;;;;;;5033007;28;20421;-69
2023/07/18 07:42:39;;;;;;;7.60;4.73;;;17.40;1.00;;;;;;5024079;28;20450;-77
2023/07/18 07:45:06;;;;;;;9.10;4.33;;;17.50;1.00;;;;;;5012578;28;20387;-68
2023/07/18 07:47:32;;;;;;;13.53;5.07;;;17.70;1.00;;;;;;5013244;28;20477;-71
2023/07/18 07:49:58;;;;;;;7.83;3.90;;;17.80;1.00;;;;;;5013399;28;20406;-72
2023/07/18 07:52:24;;;;;;;8.00;4.50;;;18.00;1.00;;;;;;5011948;28;20403;-71
2023/07/18 07:54:49;;;;;;;6.37;4.30;;;18.10;1.00;;;;;;5012014;28;20204;-71
2023/07/18 07:57:15;;;;;;;7.20;4.27;;;18.20;1.00;;;;;;5019588;28;20188;-76
2023/07/18 07:59:42;;;;;;;4.83;3.80;;;18.20;1.00;;;;;;5033024;28;20577;-77
2023/07/18 08:02:08;;;;;;;3.83;3.43;;;18.20;1.00;;;;;;5020121;28;20184;-79
2023/07/18 08:04:34;;;;;;;11.33;4.10;;;18.30;1.00;;;;;;5013256;28;20466;-76
2023/07/18 08:06:59;;;;;;;5.90;3.70;;;18.40;1.00;;;;;;5011835;28;20196;-69
2023/07/18 08:09:25;;;;;;;5.33;3.70;;;18.40;1.00;;;;;;5012289;28;20179;-79
2023/07/18 08:11:51;;;;;;;4.67;3.33;;;18.60;1.00;;;;;;5017193;28;20203;-69
2023/07/18 08:14:17;;;;;;;7.07;3.40;;;18.70;1.00;;;;;;5012894;28;20559;-73
2023/07/18 08:16:43;;;;;;;6.90;3.63;;;18.70;1.00;;;;;;5011821;28;20192;-77
2023/07/18 08:19:09;;;;;;;9.00;4.50;;;18.70;1.00;;;;;;5012125;28;20470;-69
2023/07/18 08:21:35;;;;;;;6.77;4.20;;;18.70;1.00;;;;;;5027396;28;20282;-68
2023/07/18 08:24:02;;;;;;;5.30;4.20;;;18.70;1.00;;;;;;5031072;28;20241;-78
2023/07/18 08:26:27;;;;;;;4.53;4.10;;;18.80;1.00;;;;;;5032033;28;20184;-71
2023/07/18 08:28:53;;;;;;;7.70;3.90;;;18.90;1.00;;;;;;5032794;28;20415;-77
2023/07/18 08:31:19;;;;;;;4.43;3.50;;;19.00;1.00;;;;;;5031798;28;20167;-68
2023/07/18 08:33:45;;;;;;;4.17;3.83;;;19.10;1.00;;;;;;5020298;28;20204;-69
2023/07/18 08:36:11;;;;;;;5.33;3.70;;;19.20;1.00;;;;;;5032076;28;20257;-70
2023/07/18 08:38:37;;;;;;;8.53;4.00;;;19.30;1.00;;;;;;5015584;28;20419;-71
2023/07/18 08:41:03;;;;;;;4.90;3.33;;;19.30;1.00;;;;;;5012887;28;20747;-73
2023/07/18 08:43:31;;;;;;;6.27;3.00;;;19.30;1.00;;;;;;5028677;28;20171;-75
2023/07/18 08:45:57;;;;;;;7.33;3.40;;;19.20;1.00;;;;;;5026738;28;20492;-78
2023/07/18 08:48:24;;;;;;;8.83;3.90;;;19.20;1.00;;;;;;5015505;28;20804;-78
2023/07/18 08:50:53;;;;;;;8.73;3.00;;;19.30;1.00;;;;;;5023423;28;20437;-77
2023/07/18 08:53:19;;;;;;;9.90;3.93;;;19.40;1.00;;;;;;5024709;28;20449;-69
2023/07/18 08:55:45;;;;;;;4.53;3.60;;;19.50;1.00;;;;;;5035264;28;20406;-70
2023/07/18 08:58:11;;;;;;;9.60;3.97;;;19.50;1.00;;;;;;5036038;28;20462;-78
2023/07/18 09:00:38;;;;;;;3.27;2.97;;;19.60;1.00;;;;;;5035336;28;20414;-77
2023/07/18 09:03:04;;;;;;;10.47;3.70;;;19.80;1.00;;;;;;5019172;28;20437;-69
2023/07/18 09:05:36;;;;;;;4.23;3.13;;;19.90;1.00;;;;;;5014770;28;20482;-78
2023/07/18 09:08:04;;;;;;;7.37;3.40;;;20.20;1.00;;;;;;5030871;28;20818;-75
2023/07/18 09:10:30;;;;;;;6.50;3.73;;;20.30;1.00;;;;;;5035979;28;20457;-69
2023/07/18 09:13:02;;;;;;;4.70;2.90;;;20.40;1.00;;;;;;5036042;28;20399;-67
2023/07/18 09:15:29;;;;;;;4.50;2.67;;;20.20;99.90;;;;;;5035237;28;20546;-68
2023/07/18 09:17:59;;;;;;;6.73;2.73;;;20.10;99.90;;;;;;5031212;28;20454;-78
2023/07/18 09:20:27;;;;;;;5.70;3.60;;;20.00;99.90;;;;;;5035679;28;20759;-77
2023/07/18 09:23:00;;;;;;;5.40;2.70;;;20.10;99.90;;;;;;5035232;28;20407;-79
2023/07/18 09:25:26;;;;;;;8.03;2.63;;;20.50;99.90;;;;;;5034635;28;20406;-69
2023/07/18 09:27:53;;;;;;;5.20;2.53;;;20.70;99.90;;;;;;5036148;28;20454;-79
2023/07/18 09:30:34;;;;;;;4.40;2.73;;;21.10;99.90;;;;;;5031592;28;20408;-70
2023/07/18 09:33:03;;;;;;;3.40;2.53;;;21.20;99.90;;;;;;5015999;28;20430;-75
2023/07/18 09:35:28;;;;;;;6.70;2.90;;;21.50;99.90;;;;;;5025640;28;20406;-79
2023/07/18 09:37:55;;;;;;;3.30;2.23;;;21.50;99.90;;;;;;5035627;28;20426;-76
2023/07/18 09:40:21;;;;;;;10.10;3.00;;;21.20;99.90;;;;;;5034921;28;20164;-77
2023/07/18 09:42:49;;;;;;;6.80;2.57;;;21.00;99.90;;;;;;5020273;28;20438;-69
2023/07/18 09:45:16;;;;;;;3.50;2.50;;;20.80;99.90;;;;;;5014940;28;20169;-69
2023/07/18 09:47:43;;;;;;;4.57;2.50;;;20.80;99.90;;;;;;5032733;28;20527;-69
2023/07/18 09:50:10;;;;;;;5.03;2.10;;;21.20;99.90;;;;;;5035534;28;20395;-77
2023/07/18 09:52:45;;;;;;;4.63;2.40;;;21.60;99.90;;;;;;5035512;28;20398;-68
2023/07/18 09:55:12;;;;;;;5.30;2.27;;;22.10;99.90;;;;;;5034393;28;20536;-69
2023/07/18 09:57:41;;;;;;;4.20;2.80;;;22.60;99.90;;;;;;5033111;28;20474;-75
2023/07/18 10:00:11;;;;;;;5.20;2.73;;;22.90;99.90;;;;;;5035523;28;20478;-69
2023/07/18 10:02:39;;;;;;;2.17;1.73;;;23.20;99.90;;;;;;5034155;28;20422;-78
2023/07/18 10:05:09;;;;;;;4.37;2.20;;;23.40;99.90;;;;;;5034314;28;20758;-74
2023/07/18 10:07:39;;;;;;;6.80;1.80;;;23.90;99.90;;;;;;5034898;28;20480;-75
2023/07/18 10:10:10;;;;;;;3.53;1.60;;;24.10;99.90;;;;;;5034406;28;20457;-77
2023/07/18 10:12:57;;;;;;;3.77;2.07;;;24.40;99.90;;;;;;5034376;28;20418;-71
2023/07/18 10:15:24;;;;;;;3.50;2.07;;;24.40;99.90;;;;;;5033837;28;20786;-68
2023/07/18 10:17:49;;;;;;;4.30;2.37;;;23.80;99.90;;;;;;5034000;28;20454;-68
2023/07/18 10:20:39;;;;;;;1.53;1.40;;;23.00;99.90;;;;;;5035010;28;20405;-69
2023/07/18 10:23:05;;;;;;;3.10;1.67;;;22.90;99.90;;;;;;5034589;28;20168;-69
2023/07/18 10:25:31;;;;;;;3.80;1.67;;;23.10;99.90;;;;;;5029782;28;20505;-67
2023/07/18 10:27:59;;;;;;;3.77;1.67;;;23.00;99.90;;;;;;5013865;28;20279;-78
2023/07/18 10:30:42;;;;;;;4.43;1.70;;;23.30;99.90;;;;;;5014859;28;20412;-79
2023/07/18 10:33:08;;;;;;;1.97;1.77;;;23.80;99.90;;;;;;5028697;28;20441;-78
2023/07/18 10:35:41;;;;;;;4.50;2.07;;;24.50;99.90;;;;;;5033453;28;20394;-80
2023/07/18 10:38:07;;;;;;;2.70;1.57;;;24.80;99.90;;;;;;5033856;28;20478;-68
2023/07/18 10:40:39;;;;;;;2.10;1.30;;;24.90;99.90;;;;;;5029249;28;20470;-69
2023/07/18 10:43:06;;;;;;;2.00;1.30;;;24.50;99.90;;;;;;5014378;28;20521;-69
2023/07/18 10:45:39;;;;;;;3.93;1.43;;;23.50;99.90;;;;;;5025699;28;20760;-73
2023/07/18 10:48:19;;;;;;;6.07;1.57;;;22.70;99.90;;;;;;5033089;28;20458;-80
2023/07/18 10:50:47;;;;;;;1.30;1.20;;;22.50;99.90;;;;;;5033624;28;20421;-69
2023/07/18 10:53:18;;;;;;;4.17;1.30;;;22.90;99.90;;;;;;5033423;28;20977;-69
2023/07/18 10:55:45;;;;;;;2.13;1.10;;;23.80;99.90;;;;;;5019020;28;20916;-76
2023/07/18 10:58:19;;;;;;;4.53;1.13;;;24.60;99.90;;;;;;5014503;28;20804;-69
2023/07/18 11:00:46;;;;;;;1.97;0.90;;;24.80;99.90;;;;;;5014145;28;20417;-80
2023/07/18 11:03:34;;;;;;;1.90;1.20;;;23.80;99.90;;;;;;5025672;28;20475;-79
2023/07/18 11:06:04;;;;;;;1.87;1.30;;;23.20;99.90;;;;;;5033113;28;20390;-69
2023/07/18 11:08:31;;;;;;;2.73;1.20;;;22.90;99.90;;;;;;5033984;28;20431;-68
2023/07/18 11:10:59;;;;;;;1.90;1.33;;;22.60;99.90;;;;;;5013743;28;20422;-80
2023/07/18 11:13:35;;;;;;;1.87;1.47;;;22.40;99.90;;;;;;5014009;28;20542;-71
2023/07/18 11:16:07;;;;;;;3.77;1.70;;;22.00;99.90;;;;;;5013726;28;20435;-68
2023/07/18 11:18:35;;;;;;;4.43;1.80;;;21.80;99.90;;;;;;5026362;28;20430;-69
2023/07/18 11:21:03;;;;;;;2.50;1.40;;;21.90;99.90;;;;;;5033669;28;20417;-72
2023/07/18 11:23:30;;;;;;;3.70;1.40;;;22.70;99.90;;;;;;5033898;28;20425;-69
2023/07/18 11:25:56;;;;;;;2.77;1.57;;;23.00;99.90;;;;;;5032921;28;20410;-69
2023/07/18 11:28:27;;;;;;;3.50;1.27;;;23.80;99.90;;;;;;5031881;28;20422;-78
2023/07/18 11:30:53;;;;;;;2.53;1.27;;;23.80;99.90;;;;;;5030283;28;20270;-77
2023/07/18 11:33:19;;;;;;;1.73;1.17;;;23.70;99.90;;;;;;5030648;28;20513;-70
2023/07/18 11:35:48;;;;;;;1.90;1.17;;;23.50;99.90;;;;;;5032678;28;20160;-80
2023/07/18 11:38:17;;;;;;;3.87;1.70;;;23.10;99.90;;;;;;5033634;28;20425;-79
2023/07/18 11:40:43;;;;;;;4.20;2.07;;;22.70;99.90;;;;;;5032298;28;20855;-73
2023/07/18 11:43:19;;;;;;;1.47;1.30;;;23.20;99.90;;;;;;5032214;28;20453;-69
2023/07/18 11:45:46;;;;;;;2.10;1.57;;;23.40;99.90;;;;;;5031735;28;20402;-75
2023/07/18 11:48:13;;;;;;;2.87;1.80;;;23.00;99.90;;;;;;5032292;28;20462;-71
2023/07/18 11:50:43;;;;;;;5.30;1.67;;;22.60;99.90;;;;;;5031797;28;20800;-73
2023/07/18 11:53:09;;;;;;;1.70;1.20;;;22.20;99.90;;;;;;5032907;28;20406;-79
2023/07/18 11:55:34;;;;;;;2.50;1.40;;;21.80;99.90;;;;;;5022254;28;20549;-80
2023/07/18 11:58:00;;;;;;;1.83;1.30;;;21.70;99.90;;;;;;5012591;28;20518;-77
2023/07/18 12:00:27;;;;;;;1.80;1.00;;;22.50;99.90;;;;;;5013531;28;20173;-79
2023/07/18 12:02:52;;;;;;;2.30;1.13;;;23.70;99.90;;;;;;5012396;28;20176;-79
2023/07/18 12:05:18;;;;;;;3.10;1.10;;;24.70;99.90;;;;;;5015289;28;20461;-69
2023/07/18 12:07:45;;;;;;;1.43;1.07;;;25.30;99.90;;;;;;5033257;28;20244;-79
2023/07/18 12:10:11;;;;;;;1.33;1.00;;;25.10;99.90;;;;;;5024991;28;20176;-70
2023/07/18 12:12:41;;;;;;;2.23;1.07;;;24.50;99.90;;;;;;5013378;28;20415;-74
2023/07/18 12:15:10;;;;;;;4.53;1.23;;;23.60;99.90;;;;;;5012424;28;20858;-68
2023/07/18 12:17:38;;;;;;;2.80;1.20;;;22.90;99.90;;;;;;5013745;28;20411;-78
2023/07/18 12:20:05;;;;;;;2.73;1.00;;;22.50;99.90;;;;;;5032726;28;20406;-69
2023/07/18 12:22:31;;;;;;;1.10;1.00;;;23.20;99.90;;;;;;5035032;28;20430;-77
2023/07/18 12:24:57;;;;;;;1.60;1.00;;;24.40;99.90;;;;;;5028862;28;20477;-73
2023/07/18 12:27:23;;;;;;;3.63;1.50;;;25.60;99.90;;;;;;5019779;28;20458;-70
2023/07/18 12:29:49;;;;;;;1.30;0.90;;;26.60;99.90;;;;;;5017011;28;20433;-79
2023/07/18 12:32:14;;;;;;;1.40;1.10;;;27.60;99.90;;;;;;5031423;28;20187;-79
2023/07/18 12:34:41;;;;;;;1.97;0.70;;;28.20;99.90;;;;;;5030854;28;20208;-69
2023/07/18 12:37:07;;;;;;;1.40;0.90;;;28.70;99.90;;;;;;5026428;28;20641;-69
2023/07/18 12:39:34;;;;;;;1.90;0.83;;;27.60;99.90;;;;;;5028685;28;20796;-77
2023/07/18 12:41:59;;;;;;;1.20;0.90;;;26.10;99.90;;;;;;5020520;28;20426;-73
2023/07/18 12:44:39;;;;;;;2.10;1.17;;;24.70;99.90;;;;;;5019769;28;20438;-69